createdAt,value
2019-04-16T00:02:10.910Z,55.79
2019-04-16T00:04:57.671Z,56.11
2019-04-16T00:07:52.146Z,56.69
2019-04-16T00:10:25.343Z,55.59
2019-04-16T00:13:04.043Z,56.28
2019-04-16T00:15:34.182Z,56.52
2019-04-16T00:18:03.009Z,56.52
2019-04-16T00:20:37.989Z,57.51
2019-04-16T00:23:12.406Z,57.07
2019-04-16T00:25:40.602Z,57.30
2019-04-16T00:28:09.408Z,57.30
2019-04-16T00:30:37.865Z,58.42
2019-04-16T00:33:04.640Z,58.42
2019-04-16T00:35:33.938Z,57.72
2019-04-16T00:38:03.482Z,57.29
2019-04-16T00:40:33.981Z,57.44
2019-04-16T00:43:03.184Z,57.91
2019-04-16T00:45:31.487Z,58.42
2019-04-16T00:47:58.742Z,59.28
2019-04-16T00:50:26.204Z,59.43
2019-04-16T00:52:54.373Z,60.15
2019-04-16T00:55:21.181Z,59.88
2019-04-16T00:57:48.672Z,60.05
2019-04-16T01:00:17.548Z,60.05
2019-04-16T01:02:46.910Z,60.12
2019-04-16T01:05:13.097Z,59.67
2019-04-16T01:07:39.793Z,58.75
2019-04-16T01:10:06.770Z,58.94
2019-04-16T01:12:33.458Z,58.48
2019-04-16T01:15:01.062Z,58.48
2019-04-16T01:17:28.056Z,58.27
2019-04-16T01:19:55.816Z,57.77
2019-04-16T01:22:22.403Z,57.85
2019-04-16T01:24:51.874Z,57.72
2019-04-16T01:27:21.303Z,57.57
2019-04-16T01:29:47.888Z,58.15
2019-04-16T01:32:34.351Z,58.08
2019-04-16T01:35:23.208Z,58.59
2019-04-16T01:38:15.337Z,58.29
2019-04-16T01:41:07.202Z,58.57
2019-04-16T01:43:34.103Z,58.51
2019-04-16T01:46:02.460Z,57.62
2019-04-16T01:48:30.020Z,58.45
2019-04-16T01:50:56.697Z,58.82
2019-04-16T01:53:23.486Z,59.35
2019-04-16T01:55:50.068Z,59.38
2019-04-16T01:58:16.776Z,60.26
2019-04-16T02:00:43.551Z,60.62
2019-04-16T02:03:11.621Z,61.57
2019-04-16T02:05:38.443Z,62.10
2019-04-16T02:08:05.227Z,61.58
2019-04-16T02:10:38.516Z,61.20
2019-04-16T02:13:05.247Z,61.42
2019-04-16T02:15:32.044Z,61.56
2019-04-16T02:17:59.579Z,61.66
2019-04-16T02:20:26.827Z,61.84
2019-04-16T02:22:53.529Z,61.74
2019-04-16T02:25:39.831Z,62.21
2019-04-16T02:30:39.908Z,63.00
2019-04-16T02:33:06.949Z,63.86
2019-04-16T02:35:33.719Z,64.85
2019-04-16T02:38:00.708Z,65.49
2019-04-16T02:40:27.515Z,66.15
2019-04-16T02:42:54.342Z,66.53
2019-04-16T02:45:40.733Z,66.46
2019-04-16T02:48:07.531Z,67.17
2019-04-16T02:50:43.336Z,66.84
2019-04-16T02:53:29.788Z,67.70
2019-04-16T02:56:34.444Z,66.85
2019-04-16T02:59:27.660Z,67.15
2019-04-16T03:02:22.698Z,65.52
2019-04-16T03:04:58.148Z,65.39
2019-04-16T03:07:24.375Z,65.13
2019-04-16T03:10:01.062Z,65.55
2019-04-16T03:12:20.873Z,65.24
2019-04-16T03:14:48.447Z,65.27
2019-04-16T03:17:43.740Z,65.40
2019-04-16T03:20:11.204Z,65.09
2019-04-16T03:22:37.997Z,65.42
2019-04-16T03:25:06.112Z,65.72
2019-04-16T03:27:32.928Z,65.52
2019-04-16T03:30:03.550Z,66.02
2019-04-16T03:32:33.207Z,65.83
2019-04-16T03:34:58.592Z,66.29
2019-04-16T03:37:25.188Z,66.87
2019-04-16T03:39:51.769Z,66.40
2019-04-16T03:42:18.561Z,66.19
2019-04-16T03:44:45.128Z,66.45
2019-04-16T03:47:11.942Z,66.63
2019-04-16T03:49:38.603Z,67.16
2019-04-16T03:52:08.436Z,67.42
2019-04-16T03:54:34.000Z,67.04
2019-04-16T03:57:02.222Z,67.10
2019-04-16T03:59:29.381Z,67.23
2019-04-16T04:01:56.155Z,67.00
2019-04-16T04:04:28.929Z,67.24
2019-04-16T04:06:52.881Z,67.36
2019-04-16T04:09:22.388Z,67.09
2019-04-16T04:11:49.629Z,67.36
2019-04-16T04:14:16.343Z,67.64
2019-04-16T04:16:43.091Z,67.76
2019-04-16T04:19:14.096Z,67.56
2019-04-16T04:21:38.482Z,68.03
2019-04-16T04:24:05.282Z,68.09
2019-04-16T04:26:31.960Z,68.85
2019-04-16T04:28:58.544Z,69.23
2019-04-16T04:31:25.223Z,69.18
2019-04-16T04:33:51.922Z,69.41
2019-04-16T04:36:19.694Z,68.59
2019-04-16T04:38:47.390Z,68.67
2019-04-16T04:41:14.067Z,68.75
2019-04-16T04:43:40.745Z,68.39
2019-04-16T04:46:12.520Z,67.89
2019-04-16T04:48:36.089Z,68.11
2019-04-16T04:51:08.209Z,67.37
2019-04-16T04:53:32.745Z,67.22
2019-04-16T04:55:59.427Z,67.43
2019-04-16T04:58:26.134Z,66.93
2019-04-16T05:00:52.949Z,67.20
2019-04-16T05:03:37.738Z,67.70
2019-04-16T05:06:05.472Z,67.13
2019-04-16T05:08:32.504Z,67.95
2019-04-16T05:11:02.758Z,68.19
2019-04-16T05:13:28.138Z,67.59
2019-04-16T05:15:54.918Z,67.54
2019-04-16T05:18:21.507Z,67.35
2019-04-16T05:20:48.192Z,66.84
2019-04-16T05:23:14.867Z,66.90
2019-04-16T05:25:41.669Z,65.73
2019-04-16T05:28:11.681Z,65.29
2019-04-16T05:30:36.850Z,65.44
2019-04-16T05:33:05.584Z,65.16
2019-04-16T05:35:32.246Z,65.08
2019-04-16T05:37:59.032Z,65.70
2019-04-16T05:40:27.618Z,65.77
2019-04-16T05:42:58.303Z,66.01
2019-04-16T05:45:24.033Z,65.21
2019-04-16T05:47:50.720Z,65.01
2019-04-16T05:50:17.864Z,64.63
2019-04-16T05:52:44.649Z,64.44
2019-04-16T05:55:28.780Z,64.71
2019-04-16T05:57:58.167Z,65.00
2019-04-16T06:00:32.368Z,64.76
2019-04-16T06:02:59.144Z,64.80
2019-04-16T06:05:27.974Z,63.61
2019-04-16T06:07:57.257Z,63.39
2019-04-16T06:10:23.970Z,63.15
2019-04-16T06:13:19.050Z,63.45
2019-04-16T06:19:03.624Z,62.09
2019-04-16T06:21:49.961Z,62.09
2019-04-16T06:24:23.358Z,61.98
2019-04-16T06:27:12.833Z,61.86
2019-04-16T06:29:50.638Z,60.89
2019-04-16T06:32:29.215Z,59.52
2019-04-16T06:35:14.122Z,58.00
2019-04-16T06:37:47.827Z,51.58
2019-04-16T06:40:32.912Z,48.52
2019-04-16T06:43:08.072Z,42.51
2019-04-16T06:45:42.460Z,38.16
2019-04-16T06:48:13.184Z,36.44
2019-04-16T06:50:58.753Z,33.72
2019-04-16T06:53:59.725Z,31.39
2019-04-16T06:56:44.458Z,29.82
2019-04-16T06:59:17.935Z,28.29
2019-04-16T07:02:16.399Z,27.42
2019-04-16T07:05:08.461Z,25.95
2019-04-16T07:07:53.508Z,24.58
2019-04-16T07:10:22.046Z,23.79
2019-04-16T07:12:48.846Z,25.10
2019-04-16T07:15:15.809Z,25.40
2019-04-16T07:17:42.577Z,25.38
2019-04-16T07:20:13.104Z,25.93
2019-04-16T07:22:37.743Z,26.29
2019-04-16T07:25:05.779Z,25.03
2019-04-16T07:27:41.916Z,25.51
2019-04-16T07:30:19.568Z,27.48
2019-04-16T07:32:53.450Z,26.97
2019-04-16T07:35:44.021Z,26.45
2019-04-16T07:38:13.695Z,24.53
2019-04-16T07:40:57.400Z,23.41
2019-04-16T07:43:42.166Z,23.49
2019-04-16T07:46:31.425Z,24.92
2019-04-16T07:49:09.721Z,22.57
2019-04-16T07:52:11.721Z,23.13
2019-04-16T07:54:56.025Z,21.93
2019-04-16T07:57:22.714Z,23.22
2019-04-16T07:59:51.733Z,23.15
2019-04-16T08:02:21.431Z,22.74
2019-04-16T08:04:48.435Z,21.70
2019-04-16T08:07:20.103Z,21.30
2019-04-16T08:09:43.920Z,20.39
2019-04-16T08:12:28.797Z,20.67
2019-04-16T08:14:39.231Z,20.94
2019-04-16T08:17:05.931Z,22.29
2019-04-16T08:19:37.141Z,22.93
2019-04-16T08:22:03.777Z,20.76
2019-04-16T08:24:34.561Z,19.54
2019-04-16T08:27:01.365Z,19.51
2019-04-16T08:29:28.306Z,19.16
2019-04-16T08:31:55.033Z,19.04
2019-04-16T08:34:21.845Z,19.19
2019-04-16T08:36:48.642Z,19.16
2019-04-16T08:39:15.523Z,18.96
2019-04-16T08:41:42.207Z,19.96
2019-04-16T08:44:10.386Z,19.86
2019-04-16T08:46:40.085Z,17.63
2019-04-16T08:49:06.288Z,16.55
2019-04-16T08:51:37.076Z,19.95
2019-04-16T08:54:01.670Z,18.62
2019-04-16T08:56:28.475Z,19.55
2019-04-16T08:58:59.898Z,19.60
2019-04-16T09:01:26.944Z,19.72
2019-04-16T09:03:53.731Z,19.23
2019-04-16T09:06:21.408Z,17.66
2019-04-16T09:09:24.392Z,18.21
2019-04-16T09:11:54.752Z,18.97
2019-04-16T09:14:25.660Z,19.52
2019-04-16T09:17:11.421Z,19.30
2019-04-16T09:19:40.079Z,20.58
2019-04-16T09:22:06.873Z,19.78
2019-04-16T09:24:41.654Z,19.96
2019-04-16T09:27:29.612Z,18.47
2019-04-16T09:30:22.159Z,19.29
2019-04-16T09:33:06.968Z,18.76
2019-04-16T09:35:38.049Z,18.47
2019-04-16T09:38:16.901Z,17.70
2019-04-16T09:40:51.470Z,19.02
2019-04-16T09:43:20.828Z,20.31
2019-04-16T09:45:47.946Z,18.93
2019-04-16T09:48:14.652Z,17.23
2019-04-16T09:50:46.703Z,17.07
2019-04-16T09:53:10.060Z,17.94
2019-04-16T09:55:36.758Z,17.42
2019-04-16T09:58:10.531Z,16.79
2019-04-16T10:01:18.320Z,16.02
2019-04-16T10:03:47.009Z,16.90
2019-04-16T10:06:13.823Z,15.60
2019-04-16T10:08:44.556Z,15.60
2019-04-16T10:11:09.197Z,14.46
2019-04-16T10:13:36.476Z,14.48
2019-04-16T10:16:03.598Z,14.39
2019-04-16T10:18:34.727Z,14.86
2019-04-16T10:20:59.022Z,14.63
2019-04-16T10:23:35.286Z,16.12
2019-04-16T10:26:02.381Z,13.90
2019-04-16T10:28:33.994Z,14.85
2019-04-16T10:31:00.902Z,14.84
2019-04-16T10:33:27.719Z,15.03
2019-04-16T10:35:57.367Z,14.17
2019-04-16T10:38:42.628Z,14.31
2019-04-16T10:41:13.046Z,18.34
2019-04-16T10:43:56.704Z,16.02
2019-04-16T10:46:41.770Z,15.34
2019-04-16T10:49:29.519Z,13.92
2019-04-16T10:52:27.997Z,12.71
2019-04-16T10:54:59.911Z,12.20
2019-04-16T10:57:46.448Z,12.97
2019-04-16T11:00:24.419Z,12.99
2019-04-16T11:03:28.673Z,13.51
2019-04-16T11:06:10.494Z,13.24
2019-04-16T11:08:37.298Z,13.50
2019-04-16T11:11:04.089Z,11.54
2019-04-16T11:13:42.705Z,12.41
2019-04-16T11:16:16.566Z,13.34
2019-04-16T11:18:43.555Z,12.31
2019-04-16T11:21:10.437Z,12.62
2019-04-16T11:23:37.142Z,12.17
2019-04-16T11:26:03.918Z,13.74
2019-04-16T11:28:30.725Z,15.56
2019-04-16T11:30:58.943Z,14.91
2019-04-16T11:33:27.506Z,14.82
2019-04-16T11:35:54.401Z,16.57
2019-04-16T11:38:25.270Z,16.25
2019-04-16T11:40:58.551Z,16.87
2019-04-16T11:43:29.333Z,17.63
2019-04-16T11:45:56.141Z,17.04
2019-04-16T11:48:27.136Z,16.46
2019-04-16T11:50:55.774Z,14.19
2019-04-16T11:53:22.486Z,14.17
2019-04-16T11:55:49.256Z,13.14
2019-04-16T11:58:38.442Z,13.35
2019-04-16T12:01:15.370Z,14.68
2019-04-16T12:04:14.571Z,13.71
2019-04-16T12:06:58.956Z,13.05
2019-04-16T12:10:00.415Z,13.00
2019-04-16T12:12:46.919Z,12.71
2019-04-16T12:15:17.749Z,12.27
2019-04-16T12:18:00.080Z,11.10
2019-04-16T12:20:44.924Z,11.02
2019-04-16T12:23:24.449Z,11.01
2019-04-16T12:26:10.213Z,11.16
2019-04-16T12:28:56.891Z,10.15
2019-04-16T12:31:46.067Z,11.83
2019-04-16T12:34:19.453Z,13.50
2019-04-16T12:37:18.184Z,13.04
2019-04-16T12:40:02.467Z,12.43
2019-04-16T12:42:34.831Z,11.18
2019-04-16T12:45:19.135Z,11.10
2019-04-16T12:47:59.263Z,11.10
2019-04-16T12:50:46.018Z,12.29
2019-04-16T12:53:21.547Z,13.02
2019-04-16T12:56:08.430Z,13.52
2019-04-16T12:58:50.400Z,14.11
2019-04-16T13:01:37.162Z,11.63
2019-04-16T13:04:11.047Z,11.84
2019-04-16T13:06:45.046Z,12.61
2019-04-16T13:09:26.955Z,13.55
2019-04-16T13:11:59.615Z,14.30
2019-04-16T13:14:59.944Z,13.86
2019-04-16T13:17:34.316Z,13.63
2019-04-16T13:20:11.987Z,14.96
2019-04-16T13:22:43.916Z,13.86
2019-04-16T13:25:17.340Z,13.33
2019-04-16T13:27:44.482Z,14.44
2019-04-16T13:30:11.384Z,12.76
2019-04-16T13:32:38.162Z,13.23
2019-04-16T13:35:05.480Z,11.93
2019-04-16T13:37:36.975Z,11.83
2019-04-16T13:40:04.064Z,11.94
2019-04-16T13:42:30.742Z,12.03
2019-04-16T13:45:21.690Z,11.45
2019-04-16T13:47:47.127Z,11.25
2019-04-16T13:50:39.919Z,13.22
2019-04-16T13:53:08.844Z,13.29
2019-04-16T13:55:58.170Z,13.96
2019-04-16T13:58:41.549Z,12.49
2019-04-16T14:01:14.556Z,12.49
2019-04-16T14:03:41.353Z,14.73
2019-04-16T14:06:10.389Z,17.83
2019-04-16T14:08:36.884Z,19.85
2019-04-16T14:11:03.679Z,13.84
2019-04-16T14:13:30.375Z,14.43
2019-04-16T14:15:57.343Z,14.31
2019-04-16T14:18:24.192Z,18.85
2019-04-16T14:20:50.886Z,21.40
2019-04-16T14:23:17.583Z,18.72
2019-04-16T14:25:44.663Z,13.96
2019-04-16T14:28:11.455Z,15.96
2019-04-16T14:30:43.556Z,16.64
2019-04-16T14:33:14.011Z,16.20
2019-04-16T14:35:40.742Z,15.07
2019-04-16T14:38:08.075Z,14.34
2019-04-16T14:40:34.874Z,14.65
2019-04-16T14:43:01.952Z,14.87
2019-04-16T14:45:43.565Z,15.30
2019-04-16T14:48:07.633Z,14.57
2019-04-16T14:50:33.055Z,14.29
2019-04-16T14:52:59.309Z,14.25
2019-04-16T14:55:59.689Z,13.82
2019-04-16T14:58:35.323Z,13.43
2019-04-16T15:01:14.865Z,14.32
2019-04-16T15:04:10.334Z,14.97
2019-04-16T15:07:02.697Z,15.87
2019-04-16T15:09:35.196Z,15.09
2019-04-16T15:12:24.629Z,15.59
2019-04-16T15:15:11.739Z,15.03
2019-04-16T15:18:01.927Z,15.19
2019-04-16T15:20:51.147Z,18.47
2019-04-16T15:23:34.757Z,17.84
2019-04-16T15:26:27.207Z,16.65
2019-04-16T15:29:09.247Z,16.00
2019-04-16T15:31:42.038Z,15.81
2019-04-16T15:34:17.978Z,15.77
2019-04-16T15:36:53.311Z,16.78
2019-04-16T15:39:25.007Z,16.46
2019-04-16T15:42:20.458Z,17.37
2019-04-16T15:45:09.144Z,19.38
2019-04-16T15:48:14.859Z,19.06
2019-04-16T15:51:01.408Z,17.99
2019-04-16T15:53:56.678Z,16.92
2019-04-16T15:56:32.493Z,17.18
2019-04-16T15:59:04.646Z,17.68
2019-04-16T16:01:57.189Z,18.34
2019-04-16T16:04:33.153Z,18.36
2019-04-16T16:07:09.225Z,18.89
2019-04-16T16:09:58.095Z,20.32
2019-04-16T16:12:25.349Z,20.86
2019-04-16T16:14:52.042Z,20.41
2019-04-16T16:17:19.494Z,19.60
2019-04-16T16:19:47.592Z,19.90
2019-04-16T16:22:14.149Z,19.59
2019-04-16T16:24:42.433Z,19.48
2019-04-16T16:27:09.636Z,18.72
2019-04-16T16:29:36.419Z,18.78
2019-04-16T16:32:03.259Z,19.10
2019-04-16T16:34:30.039Z,19.42
2019-04-16T16:36:56.633Z,21.24
2019-04-16T16:39:23.392Z,21.90
2019-04-16T16:41:50.094Z,23.15
2019-04-16T16:44:16.767Z,23.72
2019-04-16T16:46:57.432Z,23.92
2019-04-16T16:49:23.033Z,24.52
2019-04-16T16:52:09.485Z,24.40
2019-04-16T16:54:36.650Z,24.24
2019-04-16T16:57:10.930Z,24.49
2019-04-16T16:59:54.407Z,25.06
2019-04-16T17:02:29.686Z,25.86
2019-04-16T17:04:56.578Z,26.42
2019-04-16T17:07:23.441Z,28.18
2019-04-16T17:09:57.793Z,28.91
2019-04-16T17:12:24.498Z,28.42
2019-04-16T17:14:51.311Z,28.87
2019-04-16T17:17:18.206Z,29.30
2019-04-16T17:19:45.001Z,29.53
2019-04-16T17:22:14.717Z,29.37
2019-04-16T17:24:40.543Z,29.70
2019-04-16T17:27:07.429Z,29.94
2019-04-16T17:29:34.155Z,30.06
2019-04-16T17:32:00.962Z,30.56
2019-04-16T17:34:27.844Z,30.71
2019-04-16T17:36:54.962Z,31.09
2019-04-16T17:39:44.005Z,31.85
2019-04-16T17:42:11.467Z,31.42
2019-04-16T17:45:00.639Z,31.34
2019-04-16T17:47:47.106Z,31.04
2019-04-16T17:50:21.441Z,31.97
2019-04-16T17:53:11.864Z,32.09
2019-04-16T17:56:13.122Z,32.11
2019-04-16T17:58:49.989Z,32.35
2019-04-16T18:01:40.384Z,32.98
2019-04-16T18:04:17.444Z,32.61
2019-04-16T18:06:58.976Z,32.46
2019-04-16T18:09:40.135Z,32.50
2019-04-16T18:12:42.028Z,32.57
2019-04-16T18:15:16.982Z,32.65
2019-04-16T18:18:09.380Z,33.03
2019-04-16T18:20:58.739Z,32.96
2019-04-16T18:23:47.011Z,33.09
2019-04-16T18:26:45.751Z,33.56
2019-04-16T18:29:32.799Z,33.81
2019-04-16T18:32:34.889Z,34.98
2019-04-16T18:35:25.903Z,34.24
2019-04-16T18:38:15.045Z,34.70
2019-04-16T18:41:02.195Z,34.61
2019-04-16T18:43:44.216Z,34.85
2019-04-16T18:46:26.961Z,34.80
2019-04-16T18:48:57.273Z,34.67
2019-04-16T18:51:24.105Z,35.25
2019-04-16T18:53:51.938Z,35.27
2019-04-16T18:56:18.622Z,35.56
2019-04-16T18:58:47.163Z,35.36
2019-04-16T19:01:18.924Z,35.76
2019-04-16T19:03:45.738Z,37.32
2019-04-16T19:06:13.713Z,37.66
2019-04-16T19:08:42.284Z,38.19
2019-04-16T19:11:09.219Z,39.07
2019-04-16T19:13:36.037Z,38.73
2019-04-16T19:16:02.926Z,37.76
2019-04-16T19:18:29.738Z,37.61
2019-04-16T19:20:56.844Z,38.04
2019-04-16T19:23:23.550Z,38.41
2019-04-16T19:25:51.827Z,38.72
2019-04-16T19:28:21.644Z,37.75
2019-04-16T19:30:48.333Z,38.18
2019-04-16T19:33:14.936Z,38.23
2019-04-16T19:35:41.719Z,37.28
2019-04-16T19:38:08.409Z,37.36
2019-04-16T19:40:35.111Z,38.09
2019-04-16T19:43:03.173Z,39.39
2019-04-16T19:45:30.439Z,38.07
2019-04-16T19:48:00.241Z,39.22
2019-04-16T19:50:29.777Z,39.71
2019-04-16T19:52:54.989Z,40.01
2019-04-16T19:55:21.935Z,40.18
2019-04-16T19:57:48.658Z,40.67
2019-04-16T20:00:22.029Z,39.74
2019-04-16T20:02:44.160Z,38.80
2019-04-16T20:05:11.053Z,39.37
2019-04-16T20:07:37.644Z,38.66
2019-04-16T20:10:04.579Z,39.54
2019-04-16T20:12:31.264Z,38.74
2019-04-16T20:14:57.978Z,38.71
2019-04-16T20:17:24.757Z,39.28
2019-04-16T20:19:57.693Z,38.20
2019-04-16T20:22:25.716Z,38.54
2019-04-16T20:24:53.006Z,38.58
2019-04-16T20:27:19.817Z,39.58
2019-04-16T20:29:46.510Z,40.50
2019-04-16T20:32:13.114Z,40.89
2019-04-16T20:34:42.405Z,40.70
2019-04-16T20:37:08.607Z,40.23
2019-04-16T20:39:35.324Z,39.44
2019-04-16T20:42:02.102Z,40.20
2019-04-16T20:44:28.901Z,39.68
2019-04-16T20:46:58.571Z,39.95
2019-04-16T20:49:24.277Z,39.62
2019-04-16T20:51:50.951Z,40.39
2019-04-16T20:54:17.653Z,41.02
2019-04-16T20:56:44.316Z,41.50
2019-04-16T20:59:11.014Z,42.00
2019-04-16T21:01:37.970Z,42.27
2019-04-16T21:04:06.429Z,42.96
2019-04-16T21:06:33.587Z,43.20
2019-04-16T21:09:00.454Z,43.64
2019-04-16T21:11:27.174Z,43.33
2019-04-16T21:13:54.187Z,43.31
2019-04-16T21:16:21.397Z,43.93
2019-04-16T21:18:48.168Z,43.99
2019-04-16T21:21:14.805Z,42.94
2019-04-16T21:23:41.890Z,42.99
2019-04-16T21:26:08.587Z,42.05
2019-04-16T21:28:50.379Z,41.44
2019-04-16T21:31:22.154Z,42.22
2019-04-16T21:33:56.740Z,41.92
2019-04-16T21:36:37.989Z,42.30
2019-04-16T21:39:07.567Z,43.07
2019-04-16T21:41:34.266Z,41.74
2019-04-16T21:44:01.045Z,42.92
2019-04-16T21:46:27.732Z,42.50
2019-04-16T21:48:55.928Z,42.80
2019-04-16T21:51:24.320Z,42.36
2019-04-16T21:53:51.198Z,42.24
2019-04-16T21:56:17.892Z,42.22
2019-04-16T21:58:46.655Z,42.81
2019-04-16T22:01:25.368Z,42.93
2019-04-16T22:03:58.305Z,42.36
2019-04-16T22:06:25.246Z,42.83
2019-04-16T22:08:52.017Z,43.29
2019-04-16T22:11:18.613Z,42.95
2019-04-16T22:13:50.447Z,43.81
2019-04-16T22:16:13.917Z,43.98
2019-04-16T22:18:41.618Z,44.27
2019-04-16T22:21:10.703Z,43.70
2019-04-16T22:23:37.797Z,44.19
2019-04-16T22:26:04.600Z,42.31
2019-04-16T22:28:31.377Z,41.93
2019-04-16T22:30:58.178Z,41.91
2019-04-16T22:33:24.968Z,42.33
2019-04-16T22:35:51.664Z,42.61
2019-04-16T22:38:18.232Z,41.95
2019-04-16T22:40:58.821Z,43.67
2019-04-16T22:43:45.308Z,43.34
2019-04-16T22:46:37.489Z,42.79
2019-04-16T22:49:04.531Z,42.18
2019-04-16T22:51:31.283Z,43.62
2019-04-16T22:53:58.408Z,42.61
2019-04-16T22:56:39.422Z,42.80
2019-04-16T22:59:07.734Z,43.75
2019-04-16T23:01:36.032Z,42.66
2019-04-16T23:04:02.820Z,41.41
2019-04-16T23:06:29.539Z,42.55
2019-04-16T23:08:56.313Z,42.48
2019-04-16T23:11:23.717Z,43.21
2019-04-16T23:13:53.363Z,42.83
2019-04-16T23:16:20.164Z,41.73
2019-04-16T23:18:49.253Z,42.16
2019-04-16T23:21:15.312Z,40.96
2019-04-16T23:23:42.129Z,42.12
2019-04-16T23:26:08.830Z,40.12
2019-04-16T23:28:35.507Z,40.75
2019-04-16T23:31:02.346Z,40.61
2019-04-16T23:33:32.530Z,40.35
2019-04-16T23:35:57.706Z,40.24
2019-04-16T23:38:24.395Z,39.77
2019-04-16T23:40:50.985Z,38.58
2019-04-16T23:43:43.289Z,39.61
2019-04-16T23:46:26.023Z,40.07
2019-04-16T23:48:59.366Z,39.95
2019-04-16T23:51:32.001Z,38.45
2019-04-16T23:54:07.960Z,38.87
2019-04-16T23:56:44.824Z,38.89
2019-04-16T23:59:24.537Z,39.44
